createdAt,value
2018-07-16T00:00:23.111Z,22.57
2018-07-16T00:02:51.320Z,22.47
2018-07-16T00:05:19.631Z,22.34
2018-07-16T00:07:47.845Z,22.49
2018-07-16T00:10:15.986Z,22.48
2018-07-16T00:12:44.079Z,21.76
2018-07-16T00:15:12.223Z,21.85
2018-07-16T00:17:40.346Z,22.43
2018-07-16T00:20:08.734Z,22.48
2018-07-16T00:22:36.941Z,22.52
2018-07-16T00:25:05.163Z,22.09
2018-07-16T00:27:35.787Z,22.19
2018-07-16T00:30:05.110Z,22.47
2018-07-16T00:32:35.716Z,22.52
2018-07-16T00:35:03.831Z,22.51
2018-07-16T00:37:32.152Z,22.23
2018-07-16T00:40:00.412Z,21.83
2018-07-16T00:42:28.582Z,22.20
2018-07-16T00:44:56.759Z,22.55
2018-07-16T00:47:24.909Z,22.55
2018-07-16T00:49:53.489Z,22.35
2018-07-16T00:52:21.583Z,22.15
2018-07-16T00:54:49.658Z,22.27
2018-07-16T00:57:17.850Z,22.19
2018-07-16T00:59:46.387Z,22.42
2018-07-16T01:02:14.622Z,22.29
2018-07-16T01:04:42.784Z,22.21
2018-07-16T01:07:11.713Z,21.80
2018-07-16T01:09:39.960Z,22.16
2018-07-16T01:12:08.312Z,21.88
2018-07-16T01:14:36.453Z,22.04
2018-07-16T01:17:04.674Z,21.93
2018-07-16T01:19:32.775Z,21.68
2018-07-16T01:22:00.843Z,21.63
2018-07-16T01:24:30.660Z,21.12
2018-07-16T01:26:58.789Z,21.46
2018-07-16T01:29:26.944Z,21.09
2018-07-16T01:31:55.980Z,21.16
2018-07-16T01:34:24.111Z,21.34
2018-07-16T01:36:52.161Z,21.44
2018-07-16T01:39:20.261Z,21.82
2018-07-16T01:41:48.348Z,21.33
2018-07-16T01:44:16.469Z,21.24
2018-07-16T01:46:45.198Z,20.99
2018-07-16T01:49:13.371Z,20.68
2018-07-16T01:51:42.011Z,19.84
2018-07-16T01:54:10.109Z,19.87
2018-07-16T01:56:38.371Z,20.09
2018-07-16T01:59:06.481Z,19.76
2018-07-16T02:01:34.912Z,19.78
2018-07-16T02:04:02.983Z,19.77
2018-07-16T02:06:31.053Z,20.07
2018-07-16T02:08:59.136Z,19.74
2018-07-16T02:11:27.220Z,19.49
2018-07-16T02:13:55.318Z,19.82
2018-07-16T02:16:24.071Z,20.33
2018-07-16T02:21:25.331Z,20.01
2018-07-16T02:23:54.151Z,20.30
2018-07-16T02:26:22.478Z,20.36
2018-07-16T02:28:50.563Z,20.07
2018-07-16T02:31:18.773Z,20.21
2018-07-16T02:33:46.888Z,19.96
2018-07-16T02:36:14.966Z,19.97
2018-07-16T02:38:43.198Z,20.05
2018-07-16T02:41:11.274Z,20.08
2018-07-16T02:43:39.371Z,20.16
2018-07-16T02:46:07.497Z,20.16
2018-07-16T02:48:35.580Z,20.11
2018-07-16T02:51:03.731Z,20.31
2018-07-16T02:53:31.774Z,20.38
2018-07-16T02:55:59.875Z,20.01
2018-07-16T02:58:27.949Z,20.20
2018-07-16T03:00:56.036Z,20.06
2018-07-16T03:03:24.296Z,19.99
2018-07-16T03:05:52.415Z,19.89
2018-07-16T03:08:20.565Z,19.91
2018-07-16T03:10:48.744Z,19.90
2018-07-16T03:13:16.844Z,19.73
2018-07-16T03:15:44.987Z,19.77
2018-07-16T03:18:13.064Z,19.69
2018-07-16T03:20:41.274Z,19.58
2018-07-16T03:23:10.527Z,19.63
2018-07-16T03:25:38.618Z,19.65
2018-07-16T03:28:06.789Z,19.86
2018-07-16T03:30:34.930Z,19.83
2018-07-16T03:33:03.029Z,19.86
2018-07-16T03:35:31.256Z,20.11
2018-07-16T03:37:59.396Z,20.55
2018-07-16T03:40:27.466Z,20.03
2018-07-16T03:42:55.585Z,19.98
2018-07-16T03:45:24.512Z,19.99
2018-07-16T03:47:52.688Z,19.75
2018-07-16T03:50:20.810Z,20.07
2018-07-16T03:52:49.025Z,19.63
2018-07-16T03:55:17.213Z,19.63
2018-07-16T03:57:45.449Z,19.85
2018-07-16T04:00:13.598Z,19.91
2018-07-16T04:02:41.685Z,19.78
2018-07-16T04:05:09.815Z,20.13
2018-07-16T04:07:38.142Z,20.33
2018-07-16T04:10:06.219Z,20.11
2018-07-16T04:12:34.333Z,20.21
2018-07-16T04:15:02.489Z,20.12
2018-07-16T04:17:30.602Z,19.79
2018-07-16T04:19:58.694Z,20.31
2018-07-16T04:22:26.803Z,20.28
2018-07-16T04:24:55.077Z,19.96
2018-07-16T04:27:23.327Z,19.96
2018-07-16T04:29:51.524Z,20.06
2018-07-16T04:32:19.635Z,20.27
2018-07-16T04:34:49.466Z,20.32
2018-07-16T04:37:17.619Z,20.39
2018-07-16T04:39:45.768Z,20.49
2018-07-16T04:42:13.873Z,20.22
2018-07-16T04:44:42.063Z,20.55
2018-07-16T04:47:10.203Z,20.80
2018-07-16T04:49:38.306Z,20.82
2018-07-16T04:52:06.549Z,20.78
2018-07-16T04:54:34.622Z,21.06
2018-07-16T04:57:02.769Z,20.66
2018-07-16T04:59:30.908Z,21.02
2018-07-16T05:01:58.979Z,21.13
2018-07-16T05:04:27.107Z,21.28
2018-07-16T05:06:55.325Z,21.38
2018-07-16T05:09:23.530Z,21.32
2018-07-16T05:11:51.792Z,21.45
2018-07-16T05:14:20.246Z,21.48
2018-07-16T05:16:48.905Z,21.43
2018-07-16T05:19:17.018Z,21.30
2018-07-16T05:21:45.415Z,21.68
2018-07-16T05:24:13.661Z,21.60
2018-07-16T05:26:41.749Z,21.44
2018-07-16T05:29:09.882Z,21.53
2018-07-16T05:31:38.402Z,21.58
2018-07-16T05:34:06.491Z,21.35
2018-07-16T05:36:34.623Z,21.70
2018-07-16T05:39:02.828Z,21.53
2018-07-16T05:41:30.994Z,21.68
2018-07-16T05:43:59.214Z,21.60
2018-07-16T05:46:27.382Z,21.72
2018-07-16T05:48:55.530Z,21.54
2018-07-16T05:51:23.847Z,21.75
2018-07-16T05:53:52.046Z,21.73
2018-07-16T05:56:20.267Z,21.69
2018-07-16T05:58:48.461Z,21.84
2018-07-16T06:01:16.718Z,21.75
2018-07-16T06:03:44.892Z,22.02
2018-07-16T06:06:13.002Z,21.65
2018-07-16T06:08:41.221Z,22.03
2018-07-16T06:11:12.374Z,21.87
2018-07-16T06:13:40.564Z,21.64
2018-07-16T06:16:08.783Z,21.73
2018-07-16T06:18:37.041Z,21.67
2018-07-16T06:21:05.190Z,21.69
2018-07-16T06:23:33.290Z,21.43
2018-07-16T06:26:01.456Z,21.70
2018-07-16T06:28:29.612Z,21.66
2018-07-16T06:30:57.720Z,21.25
2018-07-16T06:33:25.999Z,21.58
2018-07-16T06:35:55.411Z,21.53
2018-07-16T06:38:23.763Z,21.83
2018-07-16T06:40:52.011Z,21.58
2018-07-16T06:43:20.196Z,21.39
2018-07-16T06:45:48.459Z,21.86
2018-07-16T06:48:16.636Z,21.59
2018-07-16T06:50:44.728Z,21.50
2018-07-16T06:53:13.066Z,21.38
2018-07-16T06:55:41.256Z,21.62
2018-07-16T06:58:09.455Z,21.38
2018-07-16T07:00:37.591Z,21.51
2018-07-16T07:03:05.699Z,21.52
2018-07-16T07:05:33.815Z,21.86
2018-07-16T07:08:01.952Z,21.84
2018-07-16T07:10:30.048Z,22.20
2018-07-16T07:12:58.139Z,22.16
2018-07-16T07:15:26.927Z,21.79
2018-07-16T07:17:55.890Z,21.91
2018-07-16T07:20:24.069Z,21.65
2018-07-16T07:22:52.330Z,21.75
2018-07-16T07:25:20.560Z,22.44
2018-07-16T07:27:49.675Z,22.32
2018-07-16T07:30:17.831Z,21.87
2018-07-16T07:32:45.957Z,22.21
2018-07-16T07:35:14.288Z,22.26
2018-07-16T07:37:42.291Z,22.50
2018-07-16T07:40:10.424Z,22.87
2018-07-16T07:42:38.591Z,23.14
2018-07-16T07:45:07.072Z,22.89
2018-07-16T07:47:35.294Z,22.70
2018-07-16T07:50:03.434Z,23.15
2018-07-16T07:52:31.577Z,23.48
2018-07-16T07:54:59.993Z,23.58
2018-07-16T07:57:28.207Z,23.51
2018-07-16T07:59:56.428Z,23.24
2018-07-16T08:02:24.594Z,23.39
2018-07-16T08:04:52.705Z,23.41
2018-07-16T08:07:20.815Z,23.47
2018-07-16T08:09:48.990Z,23.02
2018-07-16T08:12:17.152Z,23.38
2018-07-16T08:14:45.285Z,23.58
2018-07-16T08:17:13.460Z,23.74
2018-07-16T08:19:41.663Z,23.99
2018-07-16T08:22:09.954Z,24.18
2018-07-16T08:24:38.007Z,24.24
2018-07-16T08:27:06.363Z,24.48
2018-07-16T08:29:34.458Z,24.61
2018-07-16T08:32:02.711Z,24.55
2018-07-16T08:34:30.811Z,24.84
2018-07-16T08:36:58.907Z,25.07
2018-07-16T08:39:27.033Z,24.63
2018-07-16T08:41:56.184Z,24.19
2018-07-16T08:44:24.917Z,24.83
2018-07-16T08:46:53.008Z,25.17
2018-07-16T08:49:21.082Z,25.40
2018-07-16T08:51:49.290Z,25.34
2018-07-16T08:54:17.395Z,25.62
2018-07-16T08:56:45.524Z,25.09
2018-07-16T08:59:13.663Z,24.61
2018-07-16T09:01:42.447Z,25.10
2018-07-16T09:04:10.662Z,24.60
2018-07-16T09:06:38.669Z,24.97
2018-07-16T09:09:07.138Z,25.08
2018-07-16T09:11:35.271Z,25.30
2018-07-16T09:14:03.479Z,25.12
2018-07-16T09:16:31.815Z,25.28
2018-07-16T09:19:00.562Z,25.37
2018-07-16T09:21:28.671Z,25.50
2018-07-16T09:23:56.863Z,25.24
2018-07-16T09:26:25.226Z,24.74
2018-07-16T09:28:54.087Z,24.87
2018-07-16T09:31:22.191Z,24.62
2018-07-16T09:33:50.298Z,24.94
2018-07-16T09:36:18.389Z,24.90
2018-07-16T09:38:46.503Z,24.81
2018-07-16T09:41:14.714Z,25.24
2018-07-16T09:43:42.928Z,25.09
2018-07-16T09:46:11.119Z,25.37
2018-07-16T09:48:39.286Z,25.50
2018-07-16T09:51:07.442Z,25.72
2018-07-16T09:53:35.888Z,25.70
2018-07-16T09:56:03.990Z,25.74
2018-07-16T09:58:32.168Z,25.77
2018-07-16T10:01:05.739Z,25.92
2018-07-16T10:03:34.826Z,25.93
2018-07-16T10:06:02.975Z,25.58
2018-07-16T10:08:31.181Z,25.90
2018-07-16T10:10:59.319Z,25.68
2018-07-16T10:13:27.574Z,25.97
2018-07-16T10:15:55.810Z,26.27
2018-07-16T10:18:23.964Z,26.35
2018-07-16T10:20:52.075Z,26.31
2018-07-16T10:23:20.233Z,26.10
2018-07-16T10:25:48.525Z,26.20
2018-07-16T10:28:16.828Z,26.40
2018-07-16T10:30:45.053Z,26.64
2018-07-16T10:33:13.424Z,26.67
2018-07-16T10:35:41.665Z,26.87
2018-07-16T10:38:16.439Z,27.04
2018-07-16T10:40:44.514Z,26.96
2018-07-16T10:43:12.600Z,27.36
2018-07-16T10:45:40.707Z,27.48
2018-07-16T10:48:08.795Z,27.44
2018-07-16T10:50:36.892Z,27.72
2018-07-16T10:53:05.265Z,27.88
2018-07-16T10:55:33.353Z,27.80
2018-07-16T10:58:01.851Z,28.03
2018-07-16T11:00:30.016Z,28.16
2018-07-16T11:02:58.750Z,28.06
2018-07-16T11:05:27.104Z,28.18
2018-07-16T11:07:55.207Z,28.54
2018-07-16T11:10:23.325Z,28.57
2018-07-16T11:12:51.475Z,28.87
2018-07-16T11:15:19.659Z,28.90
2018-07-16T11:17:47.934Z,28.84
2018-07-16T11:20:16.254Z,28.82
2018-07-16T11:22:44.384Z,29.20
2018-07-16T11:25:12.801Z,29.29
2018-07-16T11:27:40.903Z,29.13
2018-07-16T11:30:09.126Z,29.43
2018-07-16T11:32:37.348Z,29.53
2018-07-16T11:35:05.721Z,30.00
2018-07-16T11:37:33.881Z,30.21
2018-07-16T11:40:02.006Z,30.77
2018-07-16T11:42:30.707Z,31.05
2018-07-16T11:44:59.010Z,31.11
2018-07-16T11:47:27.324Z,31.49
2018-07-16T11:49:55.564Z,31.60
2018-07-16T11:52:23.884Z,31.25
2018-07-16T11:54:53.071Z,30.41
2018-07-16T11:57:21.167Z,31.78
2018-07-16T11:59:49.459Z,32.88
2018-07-16T12:02:17.760Z,33.94
2018-07-16T12:04:46.271Z,34.52
2018-07-16T12:07:14.679Z,32.89
2018-07-16T12:09:42.880Z,31.35
2018-07-16T12:12:11.044Z,32.56
2018-07-16T12:14:39.425Z,32.26
2018-07-16T12:17:07.567Z,31.33
2018-07-16T12:19:35.738Z,33.59
2018-07-16T12:22:04.203Z,35.56
2018-07-16T12:24:32.432Z,36.16
2018-07-16T12:27:00.857Z,36.46
2018-07-16T12:29:29.550Z,36.31
2018-07-16T12:31:57.857Z,36.84
2018-07-16T12:34:26.156Z,36.81
2018-07-16T12:36:54.430Z,36.98
2018-07-16T12:39:22.812Z,36.49
2018-07-16T12:41:51.130Z,37.04
2018-07-16T12:44:19.396Z,37.07
2018-07-16T12:46:48.085Z,36.74
2018-07-16T12:49:16.479Z,38.69
2018-07-16T12:51:44.773Z,39.41
2018-07-16T12:54:12.927Z,37.42
2018-07-16T12:56:41.569Z,38.66
2018-07-16T12:59:09.950Z,39.38
2018-07-16T13:01:38.510Z,37.90
2018-07-16T13:04:06.819Z,39.05
2018-07-16T13:06:35.242Z,35.94
2018-07-16T13:09:04.143Z,35.02
2018-07-16T13:11:32.605Z,35.15
2018-07-16T13:14:01.118Z,36.01
2018-07-16T13:16:29.416Z,38.38
2018-07-16T13:18:57.599Z,39.24
2018-07-16T13:21:25.779Z,39.04
2018-07-16T13:23:54.164Z,39.48
2018-07-16T13:26:22.532Z,36.47
2018-07-16T13:28:50.816Z,35.37
2018-07-16T13:31:20.108Z,34.49
2018-07-16T13:33:48.551Z,34.85
2018-07-16T13:36:16.940Z,36.43
2018-07-16T13:38:45.295Z,36.66
2018-07-16T13:41:13.472Z,34.62
2018-07-16T13:43:41.825Z,35.39
2018-07-16T13:46:10.081Z,37.33
2018-07-16T13:48:38.488Z,38.50
2018-07-16T13:51:07.363Z,37.43
2018-07-16T13:53:35.477Z,34.26
2018-07-16T13:56:03.704Z,36.15
2018-07-16T13:58:31.991Z,36.05
2018-07-16T14:01:00.224Z,35.21
2018-07-16T14:03:29.145Z,35.03
2018-07-16T14:05:57.871Z,34.73
2018-07-16T14:08:25.976Z,34.13
2018-07-16T14:10:54.563Z,33.34
2018-07-16T14:13:22.689Z,33.37
2018-07-16T14:15:50.914Z,33.82
2018-07-16T14:18:19.198Z,35.64
2018-07-16T14:20:47.591Z,36.58
2018-07-16T14:23:15.870Z,34.66
2018-07-16T14:25:44.111Z,33.09
2018-07-16T14:28:12.276Z,32.34
2018-07-16T14:30:40.394Z,32.52
2018-07-16T14:33:08.891Z,32.81
2018-07-16T14:35:38.372Z,36.18
2018-07-16T14:38:06.691Z,36.97
2018-07-16T14:40:35.065Z,37.66
2018-07-16T14:43:03.565Z,37.36
2018-07-16T14:45:31.972Z,37.81
2018-07-16T14:48:00.409Z,37.89
2018-07-16T14:50:28.602Z,36.97
2018-07-16T14:52:56.858Z,34.96
2018-07-16T14:55:25.118Z,34.37
2018-07-16T14:57:54.301Z,33.84
2018-07-16T15:00:22.536Z,33.80
2018-07-16T15:02:50.960Z,33.84
2018-07-16T15:05:19.155Z,32.41
2018-07-16T15:07:47.345Z,32.98
2018-07-16T15:10:15.595Z,32.42
2018-07-16T15:12:43.791Z,31.13
2018-07-16T15:15:12.037Z,32.11
2018-07-16T15:17:40.122Z,32.74
2018-07-16T15:20:08.552Z,32.65
2018-07-16T15:22:36.709Z,32.28
2018-07-16T15:25:05.171Z,32.51
2018-07-16T15:27:33.255Z,32.15
2018-07-16T15:30:01.344Z,32.28
2018-07-16T15:32:29.772Z,31.96
2018-07-16T15:34:58.072Z,31.81
2018-07-16T15:37:26.237Z,31.86
2018-07-16T15:39:55.402Z,31.66
2018-07-16T15:42:23.508Z,31.67
2018-07-16T15:44:51.773Z,31.73
2018-07-16T15:47:19.854Z,31.74
2018-07-16T15:49:55.884Z,31.88
2018-07-16T15:52:24.309Z,31.62
2018-07-16T15:54:55.663Z,31.32
2018-07-16T15:57:23.792Z,31.36
2018-07-16T15:59:52.000Z,31.09
2018-07-16T16:02:20.125Z,31.15
2018-07-16T16:04:48.262Z,30.82
2018-07-16T16:07:16.383Z,30.41
2018-07-16T16:09:44.635Z,30.39
2018-07-16T16:12:12.704Z,29.19
2018-07-16T16:14:40.778Z,29.41
2018-07-16T16:17:08.899Z,29.51
2018-07-16T16:19:37.118Z,29.16
2018-07-16T16:22:05.344Z,29.41
2018-07-16T16:24:33.443Z,28.61
2018-07-16T16:27:01.499Z,28.89
2018-07-16T16:29:29.577Z,28.23
2018-07-16T16:31:58.187Z,28.40
2018-07-16T16:34:26.420Z,28.26
2018-07-16T16:36:54.567Z,29.14
2018-07-16T16:39:22.623Z,29.53
2018-07-16T16:41:50.701Z,29.17
2018-07-16T16:44:18.797Z,28.15
2018-07-16T16:46:46.855Z,28.09
2018-07-16T16:49:15.229Z,28.12
2018-07-16T16:51:43.158Z,28.38
2018-07-16T16:54:11.286Z,28.09
2018-07-16T16:56:39.639Z,28.34
2018-07-16T16:59:07.707Z,28.61
2018-07-16T17:01:35.750Z,28.18
2018-07-16T17:04:04.131Z,27.65
2018-07-16T17:06:32.203Z,28.06
2018-07-16T17:09:00.275Z,28.34
2018-07-16T17:11:28.372Z,28.01
2018-07-16T17:13:56.427Z,28.77
2018-07-16T17:16:24.588Z,28.14
2018-07-16T17:18:52.695Z,27.99
2018-07-16T17:21:20.762Z,28.35
2018-07-16T17:23:48.882Z,28.28
2018-07-16T17:26:17.005Z,28.32
2018-07-16T17:28:45.091Z,28.31
2018-07-16T17:31:13.163Z,28.61
2018-07-16T17:33:41.350Z,28.96
2018-07-16T17:36:09.515Z,28.82
2018-07-16T17:38:37.624Z,28.43
2018-07-16T17:41:05.745Z,28.83
2018-07-16T17:43:33.908Z,29.05
2018-07-16T17:46:01.979Z,29.04
2018-07-16T17:48:30.105Z,28.86
2018-07-16T17:51:00.049Z,28.80
2018-07-16T17:53:29.327Z,28.92
2018-07-16T17:55:57.447Z,28.88
2018-07-16T17:58:25.544Z,28.69
2018-07-16T18:00:53.694Z,28.96
2018-07-16T18:03:22.242Z,28.94
2018-07-16T18:05:50.361Z,28.96
2018-07-16T18:08:19.574Z,28.96
2018-07-16T18:10:47.819Z,29.01
2018-07-16T18:13:16.021Z,28.87
2018-07-16T18:15:44.047Z,28.36
2018-07-16T18:18:12.156Z,28.83
2018-07-16T18:20:40.258Z,28.87
2018-07-16T18:23:08.378Z,28.86
2018-07-16T18:25:36.505Z,28.98
2018-07-16T18:28:04.984Z,28.82
2018-07-16T18:30:33.057Z,28.78
2018-07-16T18:33:01.131Z,28.82
2018-07-16T18:35:30.458Z,28.66
2018-07-16T18:37:59.118Z,28.72
2018-07-16T18:40:27.380Z,28.53
2018-07-16T18:42:55.530Z,28.61
2018-07-16T18:45:23.703Z,28.43
2018-07-16T18:47:52.883Z,28.44
2018-07-16T18:50:21.088Z,28.43
2018-07-16T18:52:49.219Z,28.44
2018-07-16T18:55:17.496Z,28.44
2018-07-16T18:57:45.551Z,28.37
2018-07-16T19:00:13.616Z,28.38
2018-07-16T19:02:41.667Z,28.38
2018-07-16T19:05:09.762Z,28.43
2018-07-16T19:07:37.812Z,28.13
2018-07-16T19:10:06.395Z,28.21
2018-07-16T19:12:38.022Z,28.20
2018-07-16T19:15:11.805Z,28.11
2018-07-16T19:17:39.930Z,27.91
2018-07-16T19:20:08.147Z,27.73
2018-07-16T19:22:36.204Z,27.75
2018-07-16T19:25:04.288Z,27.84
2018-07-16T19:27:32.357Z,27.69
2018-07-16T19:30:00.643Z,27.62
2018-07-16T19:32:30.600Z,27.64
2018-07-16T19:35:00.178Z,27.48
2018-07-16T19:37:29.104Z,27.55
2018-07-16T19:39:57.227Z,27.46
2018-07-16T19:42:26.335Z,27.31
2018-07-16T19:44:54.403Z,27.18
2018-07-16T19:47:22.537Z,27.12
2018-07-16T19:49:50.809Z,26.97
2018-07-16T19:52:18.896Z,26.69
2018-07-16T19:54:46.962Z,26.69
2018-07-16T19:57:15.054Z,26.71
2018-07-16T19:59:43.164Z,26.70
2018-07-16T20:02:11.243Z,26.65
2018-07-16T20:04:39.731Z,26.58
2018-07-16T20:07:07.915Z,26.60
2018-07-16T20:09:36.132Z,26.37
2018-07-16T20:12:04.161Z,26.49
2018-07-16T20:14:32.400Z,26.37
2018-07-16T20:17:01.369Z,26.35
2018-07-16T20:19:29.632Z,26.25
2018-07-16T20:21:57.807Z,26.22
2018-07-16T20:24:27.150Z,25.79
2018-07-16T20:26:55.285Z,26.09
2018-07-16T20:29:23.350Z,26.11
2018-07-16T20:31:51.459Z,26.10
2018-07-16T20:34:19.575Z,26.03
2018-07-16T20:36:48.313Z,26.13
2018-07-16T20:39:17.426Z,26.00
2018-07-16T20:41:45.735Z,26.00
2018-07-16T20:44:13.918Z,25.54
2018-07-16T20:46:42.139Z,25.77
2018-07-16T20:49:10.245Z,25.93
2018-07-16T20:51:38.383Z,25.90
2018-07-16T20:54:06.931Z,25.58
2018-07-16T20:56:35.259Z,25.37
2018-07-16T20:59:03.356Z,25.60
2018-07-16T21:01:31.454Z,25.75
2018-07-16T21:03:59.762Z,25.59
2018-07-16T21:06:27.872Z,25.22
2018-07-16T21:08:56.075Z,25.51
2018-07-16T21:11:24.202Z,25.40
2018-07-16T21:13:52.529Z,25.10
2018-07-16T21:16:20.651Z,24.99
2018-07-16T21:18:48.772Z,25.45
2018-07-16T21:21:17.255Z,25.48
2018-07-16T21:23:45.476Z,25.58
2018-07-16T21:26:13.541Z,25.56
2018-07-16T21:28:41.602Z,25.46
2018-07-16T21:31:09.850Z,25.42
2018-07-16T21:33:38.098Z,25.55
2018-07-16T21:36:07.278Z,25.50
2018-07-16T21:38:35.348Z,25.31
2018-07-16T21:41:03.521Z,25.15
2018-07-16T21:43:31.634Z,25.15
2018-07-16T21:45:59.836Z,25.23
2018-07-16T21:48:28.151Z,25.04
2018-07-16T21:50:57.448Z,24.79
2018-07-16T21:53:25.825Z,24.82
2018-07-16T21:55:54.076Z,24.81
2018-07-16T21:58:22.676Z,24.77
2018-07-16T22:00:51.273Z,24.76
2018-07-16T22:03:19.335Z,24.79
2018-07-16T22:05:47.420Z,24.66
2018-07-16T22:08:15.709Z,24.78
2018-07-16T22:10:43.829Z,24.74
2018-07-16T22:13:12.048Z,24.87
2018-07-16T22:15:40.877Z,25.05
2018-07-16T22:18:09.609Z,25.05
2018-07-16T22:20:37.980Z,25.11
2018-07-16T22:23:06.384Z,25.16
2018-07-16T22:25:34.583Z,25.04
2018-07-16T22:28:02.723Z,25.10
2018-07-16T22:30:30.872Z,24.81
2018-07-16T22:33:00.341Z,24.81
2018-07-16T22:35:28.934Z,24.93
2018-07-16T22:37:57.277Z,24.94
2018-07-16T22:40:25.495Z,24.91
2018-07-16T22:42:53.605Z,24.87
2018-07-16T22:45:21.739Z,24.94
2018-07-16T22:47:49.959Z,24.90
2018-07-16T22:50:19.716Z,24.70
2018-07-16T22:52:48.125Z,24.79
2018-07-16T22:55:21.649Z,24.81
2018-07-16T22:58:01.476Z,24.73
2018-07-16T23:00:31.456Z,24.50
2018-07-16T23:03:00.344Z,23.94
2018-07-16T23:05:28.669Z,24.23
2018-07-16T23:07:56.815Z,24.31
2018-07-16T23:10:25.254Z,24.28
2018-07-16T23:12:53.619Z,24.38
2018-07-16T23:15:21.758Z,24.12
2018-07-16T23:17:50.054Z,24.06
2018-07-16T23:20:18.158Z,24.03
2018-07-16T23:22:54.590Z,24.27
2018-07-16T23:25:23.057Z,23.89
2018-07-16T23:27:51.520Z,23.65
2018-07-16T23:30:20.613Z,23.67
2018-07-16T23:32:49.118Z,23.67
2018-07-16T23:35:18.209Z,23.75
2018-07-16T23:37:46.608Z,23.58
2018-07-16T23:40:14.906Z,23.58
2018-07-16T23:42:43.549Z,23.59
2018-07-16T23:45:12.118Z,23.63
2018-07-16T23:47:40.402Z,23.23
2018-07-16T23:50:08.526Z,23.59
2018-07-16T23:52:36.861Z,23.48
2018-07-16T23:55:05.262Z,23.40
2018-07-16T23:57:33.428Z,23.38
